EST,Max TemperatureF,Mean TemperatureF,Min TemperatureF,Max Dew PointF,MeanDew PointF,Min DewpointF,Max Humidity, Mean Humidity, Min Humidity, Max Sea Level PressureIn, Mean Sea Level PressureIn, Min Sea Level PressureIn, Max VisibilityMiles, Mean VisibilityMiles, Min VisibilityMiles, Max Wind SpeedMPH, Mean Wind SpeedMPH, Max Gust SpeedMPH,PrecipitationIn, CloudCover, Events, WindDirDegrees
2012-11-1,60,42,24,36,26,18,100,61,20,30.05,29.99,29.96,10.0,9.7,4.0,9,1,,0.00,1,,294
2012-11-2,69,52,35,46,39,34,93,67,33,30.04,29.99,29.96,10.0,10.0,10.0,12,2,,0.00,1,,295
2012-11-3,78,56,35,59,45,36,100,69,36,30.10,30.03,29.94,10.0,9.3,2.5,15,3,,0.00,1,,211
2012-11-4,60,46,33,57,43,34,100,84,66,30.14,30.09,30.02,10.0,9.6,1.2,10,5,,0.00,3,,334
2012-11-5,57,42,28,41,35,28,100,78,44,30.13,30.07,30.00,10.0,6.9,0.2,8,1,,0.00,5,,337
2012-11-6,46,44,42,46,44,39,100,95,87,30.02,29.98,29.95,10.0,7.9,3.0,7,2,,0.00,8,,1
2012-11-7,48,45,42,45,40,36,100,82,62,30.12,29.98,29.91,10.0,9.2,5.0,10,4,,0.00,7,,326
2012-11-8,55,44,33,39,37,34,100,83,47,30.25,30.19,30.12,10.0,6.8,2.5,8,2,,0.00,2,,341
2012-11-9,66,47,28,43,36,28,100,72,35,30.31,30.24,30.19,10.0,8.4,5.0,7,1,,0.00,0,,254
2012-11-10,71,56,42,43,39,36,81,58,28,30.34,30.27,30.23,10.0,9.8,4.0,10,3,,0.00,0,,159
2012-11-11,68,56,44,50,43,36,76,58,37,30.34,30.26,30.17,10.0,9.6,3.0,23,8,31,0.00,0,,157
2012-11-12,64,50,33,57,47,30,100,85,63,30.42,30.26,30.15,10.0,7.9,0.8,23,11,23,0.00,5,,267
2012-11-13,48,36,24,30,27,25,100,71,40,30.47,30.41,30.36,10.0,10.0,10.0,14,3,,0.00,0,,18
2012-11-14,53,38,24,36,31,25,100,79,50,30.40,30.34,30.28,10.0,10.0,10.0,8,1,,0.00,1,,11
2012-11-15,55,40,26,37,32,27,100,76,44,30.32,30.28,30.24,10.0,10.0,9.0,7,1,,0.00,0,,345
2012-11-16,57,42,26,36,30,25,100,70,31,30.36,30.32,30.29,10.0,9.9,7.0,10,2,,0.00,0,,8
2012-11-17,60,43,26,36,31,25,100,73,29,30.45,30.39,30.35,10.0,10.0,9.0,8,1,,0.00,0,,6
2012-11-18,62,45,28,36,31,27,100,69,30,30.43,30.37,30.32,10.0,8.9,1.5,7,1,,0.00,0,,351
2012-11-19,64,47,30,43,36,28,100,74,39,30.35,30.28,30.20,10.0,10.0,7.0,6,1,,0.00,0,,303
2012-11-20,66,52,39,45,43,37,93,70,40,30.21,30.15,30.09,10.0,10.0,10.0,7,1,,0.00,4,,296
2012-11-21,66,52,37,48,43,37,100,77,46,30.21,30.17,30.11,10.0,9.9,7.0,7,1,,0.00,1,,340
2012-11-22,69,50,32,46,39,32,100,74,35,30.25,30.20,30.16,10.0,8.3,0.2,9,1,,0.00,1,,214
2012-11-23,57,46,35,50,39,28,100,79,53,30.21,30.16,30.13,10.0,9.6,1.2,10,2,,0.00,3,,310
2012-11-24,39,31,23,28,22,19,93,66,45,30.29,30.22,30.16,10.0,10.0,10.0,12,5,,0.00,0,,341
2012-11-25,55,37,19,27,22,18,93,62,23,30.17,30.12,30.04,10.0,10.0,10.0,9,2,,0.00,0,,219
2012-11-26,66,49,32,46,34,25,93,57,28,30.19,30.13,30.09,10.0,9.8,3.0,9,3,,0.00,6,,151
2012-11-27,51,44,37,48,41,32,100,92,81,30.32,30.22,30.11,10.0,8.3,1.5,14,6,,0.00,8,,5
2012-11-28,48,37,26,32,29,21,100,74,34,30.46,30.39,30.31,10.0,10.0,10.0,8,4,,0.00,3,,9
2012-11-29,60,42,23,34,27,21,100,69,29,30.42,30.35,30.29,10.0,10.0,10.0,7,1,,0.00,0,,160
2012-11-30,62,46,30,45,38,27,100,71,45,30.35,30.30,30.23,10.0,10.0,10.0,13,3,21,0.00,1,,169